Latest Weather Observations for Renmark Airport

IDS60801

Issued at 6:35 pm CDT Tuesday 27 January 2015 (issued every 30 minutes, with the page automatically refreshed every 10 minutes)

About weather observations | Map of weather stations | Latest weather observations for SA | Other Formats
Station Details ID: 024048 Name: RENMARK AERO Lat: -34.20 Lon: 140.68 Height: 31.5 m
Data from the previous 72 hours. | See also: Recent months at Renmark Airport
Date/Time
CDT
Temp
°C
App
Temp
°C
Dew
Point
Rel
Hum
%
Delta-T
°C
Wind Press
QNH
hPa
Press
MSL
hPa
Rain
since 9 am
mm
Dir
 
Spd
km/h
Gust
km/h
Spd
kts
Gust
kts
27/06:30pm 26.4 19.5 0.2 18 12.2 S 26 37 14 20 1012.0 1011.9 0.0
27/06:00pm 26.6 19.4 0.4 18 12.3 SSW 28 43 15 23 1011.9 1011.8 0.0
27/05:30pm 26.5 19.2 0.3 18 12.3 S 28 39 15 21 1012.1 1012.0 0.0
27/05:00pm 26.3 19.4 0.1 18 12.2 S 26 43 14 23 1012.3 1012.2 0.0
27/04:30pm 26.6 19.2 -0.4 17 12.5 S 28 44 15 24 1012.5 1012.4 0.0
27/04:00pm 26.0 18.8 0.6 19 11.9 S 28 37 15 20 1012.6 1012.5 0.0
27/03:30pm 25.9 18.9 -0.2 18 12.1 S 26 43 14 23 1012.8 1012.7 0.0
27/03:00pm 25.0 17.8 0.5 20 11.4 S 28 43 15 23 1013.4 1013.3 0.0
27/02:30pm 24.8 18.4 1.0 21 11.1 SSW 24 37 13 20 1013.9 1013.8 0.0
27/02:00pm 24.2 17.9 1.8 23 10.6 SSW 24 35 13 19 1014.3 1014.2 0.0
27/01:30pm 23.7 17.1 2.0 24 10.3 S 26 41 14 22 1014.6 1014.5 0.0
27/01:00pm 22.7 15.8 2.8 27 9.5 S 28 39 15 21 1015.2 1015.1 0.0
27/12:37pm 22.3 15.8 2.9 28 9.2 SSW 26 43 14 23 1015.6 1015.4 0.0
27/12:30pm 21.3 15.4 4.0 32 8.4 S 24 35 13 19 1015.6 1015.4 0.0
27/12:00pm 21.8 16.3 3.9 31 8.7 S 22 35 12 19 1016.1 1015.9 0.0
27/11:30am 20.6 15.4 3.8 33 8.0 S 20 30 11 16 1016.5 1016.3 0.0
27/11:00am 20.1 14.2 3.8 34 7.8 S 24 39 13 21 1016.9 1016.7 0.0
27/10:30am 19.5 13.9 3.6 35 7.5 SSE 22 33 12 18 1017.0 1016.8 0.0
27/10:00am 19.1 13.8 4.8 39 6.9 SSE 22 32 12 17 1017.3 1017.1 0.0
27/09:30am 18.1 12.9 5.7 44 6.0 SSE 22 30 12 16 1017.3 1017.1 0.0
27/09:00am 16.7 11.5 5.6 48 5.3 SSE 22 32 12 17 1017.6 1017.4 0.0
27/08:30am 15.5 10.7 5.7 52 4.7 SSE 20 28 11 15 1017.6 1017.4 0.0
27/08:00am 14.1 9.3 5.7 57 4.0 SSE 20 30 11 16 1017.3 1017.1 0.0
27/07:30am 13.3 9.1 5.7 60 3.6 S 17 22 9 12 1016.9 1016.7 0.0
27/07:00am 12.5 8.3 5.9 64 3.1 S 17 26 9 14 1016.6 1016.4 0.0
27/06:30am 11.9 8.5 5.8 66 2.8 S 13 19 7 10 1016.3 1016.1 0.0
27/06:00am 11.9 8.4 5.5 65 3.0 S 13 20 7 11 1016.0 1015.8 0.0
27/05:30am 12.3 8.4 5.5 63 3.2 S 15 22 8 12 1015.6 1015.4 0.0
27/05:00am 12.8 8.2 5.5 61 3.4 S 19 26 10 14 1015.3 1015.2 0.0
27/04:30am 13.2 8.4 5.4 59 3.6 S 20 28 11 15 1015.1 1015.0 0.0
27/04:00am 13.6 8.7 5.3 57 3.9 S 20 26 11 14 1015.0 1014.9 0.0
27/03:30am 13.7 8.8 5.3 57 3.9 S 20 28 11 15 1015.1 1015.0 0.0
27/03:00am 14.1 9.5 5.5 56 4.1 S 19 24 10 13 1015.1 1015.0 0.0
27/02:30am 14.4 9.8 5.5 55 4.2 S 19 26 10 14 1015.5 1015.3 0.0
27/02:00am 14.9 10.1 5.4 53 4.5 SSW 20 32 11 17 1015.6 1015.4 0.0
27/01:30am 15.2 10.4 5.4 52 4.7 S 20 28 11 15 1015.7 1015.5 0.0
27/01:00am 15.6 10.4 5.5 51 4.8 SSW 22 30 12 16 1015.9 1015.7 0.0
27/12:30am 15.9 10.7 5.5 50 5.0 SSW 22 30 12 16 1016.0 1015.8 0.0
27/12:00am 16.4 11.2 5.4 48 5.3 SSW 22 32 12 17 1016.1 1015.9 0.0
 
Date/Time
CDT
Temp
°C
App
Temp
°C
Dew
Point
Rel
Hum
%
Delta-T
°C
Wind Press
QNH
hPa
Press
MSL
hPa
Rain
since 9 am
mm
Dir
 
Spd
km/h
Gust
km/h
Spd
kts
Gust
kts
26/11:30pm 17.0 11.4 5.3 46 5.6 SSW 24 35 13 19 1015.9 1015.7 0.0
26/11:00pm 17.7 11.9 4.6 42 6.2 SSW 24 32 13 17 1015.7 1015.5 0.0
26/10:30pm 18.4 12.3 4.6 40 6.6 SSW 26 39 14 21 1015.7 1015.5 0.0
26/10:00pm 19.2 13.4 4.2 37 7.2 SSW 24 39 13 21 1015.5 1015.3 0.0
26/09:53pm 19.5 12.9 4.0 36 7.4 SSW 28 39 15 21 1015.3 1015.2 0.0
26/09:30pm 19.4 15.5 1.4 30 8.1 SSW 11 13 6 7 1015.0 1014.9 0.0
26/09:00pm 20.0 16.5 1.0 28 8.6 S 9 13 5 7 1014.9 1014.8 0.0
26/08:30pm 21.4 16.3 0.6 25 9.4 SSW 17 22 9 12 1014.6 1014.5 0.0
26/08:00pm 22.3 16.2 0.2 23 10.0 SSW 22 32 12 17 1014.3 1014.2 0.0
26/07:30pm 23.1 17.3 -0.4 21 10.6 SSW 20 30 11 16 1014.0 1013.9 0.0
26/07:00pm 23.7 17.9 0.1 21 10.8 SSW 20 30 11 16 1013.9 1013.8 0.0
26/06:30pm 24.0 17.9 0.4 21 10.9 S 22 32 12 17 1013.5 1013.4 0.0
26/06:00pm 24.5 18.4 0.1 20 11.2 SSW 22 35 12 19 1013.4 1013.3 0.0
26/05:30pm 24.2 18.1 0.5 21 10.9 SSW 22 37 12 20 1013.6 1013.5 0.0
26/05:00pm 24.4 17.9 0.0 20 11.2 SSW 24 37 13 20 1013.8 1013.7 0.0
26/04:30pm 24.6 19.0 0.2 20 11.2 S 19 30 10 16 1013.9 1013.8 0.0
26/04:00pm 23.7 17.9 0.1 21 10.8 S 20 32 11 17 1014.3 1014.2 0.0
26/03:30pm 23.6 18.5 0.7 22 10.6 S 17 37 9 20 1014.6 1014.5 0.0
26/03:00pm 22.8 16.8 1.2 24 10.0 SSW 22 32 12 17 1014.9 1014.8 0.0
26/02:30pm 22.9 17.6 1.8 25 9.9 SSW 19 32 10 17 1015.1 1015.0 0.0
26/02:00pm 22.9 17.5 2.4 26 9.7 S 20 35 11 19 1015.3 1015.2 0.0
26/01:30pm 21.9 16.4 2.1 27 9.3 SSW 20 35 11 19 1015.9 1015.7 0.0
26/01:00pm 22.1 17.2 2.2 27 9.3 S 17 32 9 17 1016.0 1015.8 0.0
26/12:30pm 22.2 17.9 3.3 29 9.1 SSE 15 46 8 25 1016.5 1016.3 0.0
26/12:00pm 20.5 15.4 3.3 32 8.1 S 19 30 10 16 1016.8 1016.6 0.0
26/11:30am 20.4 15.7 3.2 32 8.1 SSE 17 28 9 15 1017.1 1016.9 0.0
26/11:00am 19.3 14.7 3.5 35 7.5 S 17 30 9 16 1017.3 1017.1 0.0
26/10:30am 19.0 15.0 4.7 39 6.9 SSE 15 22 8 12 1017.5 1017.3 0.0
26/10:00am 18.3 14.3 4.8 41 6.5 SSE 15 20 8 11 1017.8 1017.6 0.0
26/09:30am 17.2 13.8 5.8 47 5.5 SSE 13 22 7 12 1018.1 1017.9 0.0
26/09:00am 16.2 12.0 5.8 50 5.0 SE 17 22 9 12 1018.1 1017.9 0.0
26/08:30am 15.1 11.0 6.1 55 4.3 SSE 17 20 9 11 1018.2 1018.0 0.0
26/08:00am 14.3 10.6 6.4 59 3.8 SSE 15 20 8 11 1017.9 1017.7 0.0
26/07:30am 13.2 9.9 6.3 63 3.3 S 13 20 7 11 1017.7 1017.5 0.0
26/07:00am 12.0 9.1 6.5 69 2.6 S 11 15 6 8 1017.2 1017.0 0.0
26/06:30am 11.1 8.5 6.3 72 2.2 S 9 13 5 7 1017.0 1016.8 0.0
26/06:00am 11.3 8.4 6.4 72 2.3 S 11 13 6 7 1016.7 1016.5 0.0
26/05:30am 11.4 8.8 6.3 71 2.4 S 9 13 5 7 1016.4 1016.2 0.0
26/05:00am 12.0 9.1 6.3 68 2.7 S 11 13 6 7 1016.1 1015.9 0.0
26/04:30am 12.4 9.1 6.5 67 2.8 S 13 17 7 9 1015.7 1015.5 0.0
26/04:00am 12.7 9.4 6.3 65 3.0 SSW 13 17 7 9 1015.3 1015.2 0.0
26/03:30am 13.1 9.8 6.5 64 3.2 S 13 17 7 9 1015.1 1015.0 0.0
26/03:00am 13.6 9.9 6.5 62 3.4 S 15 20 8 11 1015.1 1015.0 0.0
26/02:30am 13.9 10.2 6.3 60 3.6 S 15 22 8 12 1015.1 1015.0 0.0
26/02:00am 14.3 10.2 6.2 58 3.9 S 17 24 9 13 1015.1 1015.0 0.0
26/01:30am 14.5 10.7 5.8 56 4.1 SSW 15 20 8 11 1015.1 1015.0 0.0
26/01:00am 14.9 11.2 6.2 56 4.2 SSW 15 20 8 11 1015.5 1015.3 0.0
26/12:30am 15.3 11.2 6.3 55 4.4 SSW 17 24 9 13 1015.5 1015.3 0.0
26/12:00am 15.5 11.5 6.8 56 4.3 S 17 22 9 12 1015.6 1015.4 0.0
 
Date/Time
CDT
Temp
°C
App
Temp
°C
Dew
Point
Rel
Hum
%
Delta-T
°C
Wind Press
QNH
hPa
Press
MSL
hPa
Rain
since 9 am
mm
Dir
 
Spd
km/h
Gust
km/h
Spd
kts
Gust
kts
25/11:30pm 15.8 11.5 6.8 55 4.4 SSW 19 26 10 14 1015.6 1015.4 0.0
25/11:00pm 16.5 11.1 6.3 51 5.0 S 24 33 13 18 1015.3 1015.2 0.0
25/10:30pm 17.2 11.8 4.5 43 6.0 S 22 33 12 18 1014.9 1014.8 0.0
25/10:00pm 17.7 12.3 4.3 41 6.3 SSW 22 35 12 19 1014.6 1014.5 0.0
25/09:30pm 18.3 13.9 4.5 40 6.6 SSW 17 24 9 13 1014.2 1014.1 0.0
25/09:00pm 18.7 13.3 4.5 39 6.8 S 22 32 12 17 1013.7 1013.6 0.0
25/08:30pm 19.7 13.7 3.4 34 7.7 S 24 35 13 19 1013.2 1013.1 0.0
25/08:00pm 20.6 14.9 2.9 31 8.3 S 22 32 12 17 1012.9 1012.8 0.0
25/07:30pm 21.4 14.6 3.1 30 8.7 SSW 28 37 15 20 1012.5 1012.4 0.0
25/07:00pm 22.5 16.0 2.6 27 9.4 SSW 26 39 14 21 1012.3 1012.2 0.0
25/06:30pm 23.4 16.4 3.9 28 9.6 S 30 41 16 22 1011.9 1011.8 0.0
25/06:13pm 23.7 16.8 2.5 25 10.1 SSW 28 46 15 25 1011.7 1011.6 0.0
25/06:00pm 24.1 16.7 1.7 23 10.6 SSW 30 44 16 24 1011.5 1011.4 0.0
25/05:30pm 24.5 17.6 0.1 20 11.2 SSW 26 39 14 21 1011.4 1011.3 0.0
25/05:00pm 24.5 17.9 2.0 23 10.7 SSW 26 44 14 24 1011.5 1011.4 0.0
25/04:51pm 23.9 16.9 2.1 24 10.4 SW 28 46 15 25 1011.6 1011.5 0.0
25/04:30pm 24.2 17.0 2.9 25 10.3 S 30 41 16 22 1011.5 1011.4 0.0
25/04:00pm 24.9 18.1 3.0 24 10.7 SSW 28 44 15 24 1011.3 1011.2 0.0
25/03:30pm 25.9 19.3 1.9 21 11.5 SW 26 41 14 22 1011.2 1011.1 0.0
25/03:00pm 25.2 18.5 1.3 21 11.3 SW 26 41 14 22 1011.3 1011.2 0.0
25/02:30pm 25.1 18.1 1.9 22 11.1 SW 28 44 15 24 1011.7 1011.6 0.0
25/02:10pm 24.4 17.4 1.9 23 10.7 SSW 28 59 15 32 1011.7 1011.6 0.0
25/02:00pm 24.2 17.9 1.8 23 10.6 SW 24 37 13 20 1011.7 1011.6 0.0
25/01:30pm 23.4 17.4 3.4 27 9.7 SSW 24 35 13 19 1011.8 1011.7 0.0
25/01:00pm 24.0 18.1 3.9 27 9.9 SSW 24 43 13 23 1012.1 1012.0 0.0
25/12:30pm 23.2 18.0 3.7 28 9.5 SW 20 54 11 29 1012.3 1012.2 0.0
25/12:00pm 22.3 17.3 4.8 32 8.7 SW 20 32 11 17 1012.5 1012.4 0.0
25/11:30am 21.1 16.4 5.9 37 7.6 SSW 20 37 11 20 1012.6 1012.5 0.0
25/11:00am 20.7 15.6 5.9 38 7.4 SW 22 33 12 18 1012.4 1012.3 0.0
25/10:30am 20.6 16.7 6.9 41 7.0 SSW 17 33 9 18 1012.5 1012.4 0.0
25/10:00am 19.7 14.3 6.4 42 6.7 SSW 24 35 13 19 1012.3 1012.2 0.0
25/09:30am 18.7 14.3 7.2 47 5.8 SW 20 33 11 18 1012.4 1012.3 0.0
25/09:00am 18.6 14.2 7.4 48 5.7 SSW 20 28 11 15 1012.3 1012.2 0.0
25/08:30am 17.7 13.5 8.3 54 4.8 SSW 20 26 11 14 1012.0 1011.9 0.0
25/08:00am 17.1 13.8 9.5 61 4.0 SSW 17 28 9 15 1011.7 1011.6 0.0
25/07:30am 16.2 13.0 9.8 66 3.4 SSW 17 26 9 14 1011.3 1011.2 0.0
25/07:00am 15.3 13.3 10.1 71 2.7 SW 11 17 6 9 1010.7 1010.6 0.0
25/06:30am 14.9 12.9 10.1 73 2.5 WSW 11 17 6 9 1010.3 1010.2 0.0
25/06:00am 15.3 11.8 10.3 72 2.6 SW 19 26 10 14 1009.7 1009.6 0.0
25/05:30am 15.7 13.5 10.7 72 2.7 SW 13 19 7 10 1009.4 1009.3 0.0
25/05:00am 16.2 12.8 10.7 70 2.9 SSW 19 24 10 13 1009.2 1009.1 0.0
25/04:30am 16.7 12.9 11.0 69 3.1 SW 22 33 12 18 1009.0 1008.9 0.0
25/04:00am 17.4 14.4 12.1 71 2.9 S 19 28 10 15 1008.9 1008.8 0.0
25/03:30am 17.8 15.3 11.1 65 3.6 SSW 15 24 8 13 1008.8 1008.7 0.0
25/03:00am 17.9 14.6 11.0 64 3.7 SW 19 30 10 16 1008.4 1008.3 0.0
25/02:30am 18.3 15.9 11.4 64 3.8 SW 15 20 8 11 1008.6 1008.5 0.0
25/02:00am 18.7 16.2 11.0 61 4.2 SW 15 20 8 11 1008.4 1008.3 0.0
25/01:30am 19.0 16.7 10.6 58 4.5 SW 13 17 7 9 1008.4 1008.3 0.0
25/01:00am 19.8 16.7 10.2 54 5.2 SW 17 22 9 12 1008.4 1008.3 0.0
25/12:30am 19.9 18.6 9.8 52 5.4 SW 7 13 4 7 1008.4 1008.3 0.0
25/12:00am 20.4 17.9 9.6 50 5.8 SW 13 17 7 9 1008.4 1008.3 0.0
 
Date/Time
CDT
Temp
°C
App
Temp
°C
Dew
Point
Rel
Hum
%
Delta-T
°C
Wind Press
QNH
hPa
Press
MSL
hPa
Rain
since 9 am
mm
Dir
 
Spd
km/h
Gust
km/h
Spd
kts
Gust
kts
24/11:30pm 21.2 18.5 9.1 46 6.4 SW 13 17 7 9 1008.4 1008.3 0.0
24/11:00pm 21.8 18.7 9.0 44 6.8 SW 15 24 8 13 1008.1 1008.0 0.0
24/10:30pm 22.6 18.8 9.0 42 7.3 SW 19 24 10 13 1007.8 1007.7 0.0
24/10:00pm 23.1 19.1 9.1 41 7.5 SW 20 32 11 17 1007.3 1007.2 0.0
24/09:30pm 23.8 19.0 9.0 39 8.0 SSW 24 39 13 21 1006.6 1006.5 0.0
24/09:00pm 25.0 20.8 8.1 34 9.0 SSW 20 30 11 16 1006.0 1005.9 0.0
24/08:30pm 26.2 20.6 5.2 26 10.8 WSW 24 33 13 18 1005.2 1005.1 0.0
24/08:00pm 27.6 21.3 4.0 22 11.9 WSW 26 39 14 21 1004.7 1004.6 0.0
24/07:30pm 29.1 22.2 2.4 18 13.3 SW 28 41 15 22 1004.1 1004.0 0.0
24/07:00pm 29.8 22.2 2.9 18 13.5 WSW 32 41 17 22 1003.7 1003.6 0.0

Other Formats:

Comma delimited format used in spreadsheet applications
http://www.bom.gov.au/fwo/IDS60801/IDS60801.95687.axf

JavaScript Object Notation format (JSON) in row-major order
http://www.bom.gov.au/fwo/IDS60801/IDS60801.95687.json